Portada
METAR-TAF:

METAR-TAF

Aeroports :

Parauapebas, Pará, Brasil

latitud: 06-07S, longitud: 050-00W, altitud: 621 m

Observació

L'informe es va fer fa 4 hores i 24 minuts, a les 21:30 UTC
Vent calma
Temperatura 24°C
Humitat 65%
Pressió 1017 hPa
Visibilitat 10 km o més
Escasses núvols a una alçada de 3300 ft

METAR: SBCJ 192130Z 00000KT 9999 FEW033 24/17 Q1017

Hora: 22:54 (01:54 UTC)

Pronòstic

L'informe es va fer fa 4 hores i 39 minuts, a les 21:15 UTC
Pronòstic vàlid del 20 a les 00 UTC al 20 a les 12 UTC
Vent 3 kt del Est/Nord-Est
Visibilitat 10 km o més
sense núvols per sota de 1500 mi sense presència de cumulonimbus.
Evolucionant progressivament
l' 20 a les 10 UTC al 20 a les 12 UTC
Vent 5 kt del Est/Sud-Est

TAF: SBCJ 192115Z 2000/2012 07003KT CAVOK TN22/2010Z TX25/2012Z BECMG 2010/2012 12005KT RMK PGS

Observacions i pronòstics meteorològics de més de 4000 aeroports (METAR i TAF).

Les estacions disponibles són els punts grocs i vermells al mapa.

Posi el ratolí al punt desitjat per veure el nom de l'estació.

Feu clic per veure les observacions i els pronòstics meteorològics.

Per canviar el mapa: feu clic els botons verds amb una creu de color negre per apropar; al botó verd amb un guió per allunyar la imatge; o en les fletxes verdes per a mapes adjacents.


METAR-TAF: